createdAt,value
2018-11-29T00:02:29.987Z,31.83
2018-11-29T00:05:33.087Z,28.63
2018-11-29T00:08:36.194Z,32.43
2018-11-29T00:11:39.284Z,30.17
2018-11-29T00:14:42.368Z,30.27
2018-11-29T00:17:45.472Z,30.87
2018-11-29T00:20:48.543Z,31.43
2018-11-29T00:23:51.648Z,29.93
2018-11-29T00:26:54.748Z,31.03
2018-11-29T00:29:57.825Z,33.13
2018-11-29T00:33:00.911Z,31.67
2018-11-29T00:36:03.998Z,31.37
2018-11-29T00:39:07.352Z,30.00
2018-11-29T00:42:10.464Z,32.57
2018-11-29T00:45:14.299Z,30.23
2018-11-29T00:48:17.395Z,33.83
2018-11-29T00:51:20.488Z,33.90
2018-11-29T00:54:23.561Z,33.43
2018-11-29T00:57:26.642Z,34.53
2018-11-29T01:00:29.756Z,33.83
2018-11-29T01:03:32.839Z,33.70
2018-11-29T01:06:35.942Z,34.63
2018-11-29T01:09:38.986Z,36.67
2018-11-29T01:12:42.139Z,35.33
2018-11-29T01:15:45.226Z,37.93
2018-11-29T01:18:48.307Z,36.90
2018-11-29T01:21:51.386Z,37.20
2018-11-29T01:24:54.471Z,33.63
2018-11-29T01:27:57.567Z,36.37
2018-11-29T01:31:00.656Z,37.60
2018-11-29T01:34:03.772Z,37.43
2018-11-29T01:37:06.855Z,37.93
2018-11-29T01:40:16.767Z,36.30
2018-11-29T01:43:19.881Z,34.40
2018-11-29T01:46:22.944Z,35.13
2018-11-29T01:49:26.036Z,35.37
2018-11-29T01:52:29.132Z,36.60
2018-11-29T01:55:32.216Z,35.43
2018-11-29T01:58:35.308Z,36.83
2018-11-29T02:01:38.375Z,38.33
2018-11-29T02:04:41.491Z,37.43
2018-11-29T02:08:04.228Z,35.40
2018-11-29T02:11:07.520Z,33.63
2018-11-29T02:14:10.613Z,35.43
2018-11-29T02:17:13.671Z,33.13
2018-11-29T02:20:18.709Z,41.07
2018-11-29T02:23:21.772Z,42.57
2018-11-29T02:26:24.865Z,34.53
2018-11-29T02:29:27.948Z,35.80
2018-11-29T02:32:31.032Z,36.67
2018-11-29T02:35:34.255Z,39.00
2018-11-29T02:38:37.347Z,34.03
2018-11-29T02:41:40.449Z,37.97
2018-11-29T02:44:43.508Z,36.93
2018-11-29T02:47:46.617Z,37.90
2018-11-29T02:50:49.697Z,35.97
2018-11-29T02:53:52.812Z,37.37
2018-11-29T02:56:55.916Z,34.00
2018-11-29T02:59:59.020Z,33.80
2018-11-29T03:03:02.092Z,38.47
2018-11-29T03:06:05.287Z,36.80
2018-11-29T03:09:08.392Z,38.60
2018-11-29T03:12:11.496Z,39.93
2018-11-29T03:15:15.430Z,36.60
2018-11-29T03:18:18.551Z,37.80
2018-11-29T03:21:21.620Z,37.60
2018-11-29T03:24:24.729Z,36.33
2018-11-29T03:27:27.806Z,39.07
2018-11-29T03:30:30.885Z,36.93
2018-11-29T03:33:33.977Z,38.93
2018-11-29T03:36:37.088Z,40.33
2018-11-29T03:39:40.181Z,39.60
2018-11-29T03:42:43.621Z,39.30
2018-11-29T03:45:46.712Z,38.60
2018-11-29T03:48:49.796Z,38.83
2018-11-29T03:51:52.901Z,35.83
2018-11-29T03:54:56.031Z,38.60
2018-11-29T03:57:59.145Z,40.67
2018-11-29T04:01:02.249Z,35.60
2018-11-29T04:04:05.492Z,37.87
2018-11-29T04:07:08.582Z,37.00
2018-11-29T04:10:12.775Z,35.53
2018-11-29T04:13:15.838Z,39.10
2018-11-29T04:16:18.944Z,38.67
2018-11-29T04:19:22.019Z,37.07
2018-11-29T04:22:25.136Z,36.73
2018-11-29T04:25:28.212Z,39.23
2018-11-29T04:28:31.306Z,37.40
2018-11-29T04:31:34.372Z,37.87
2018-11-29T04:34:37.483Z,36.03
2018-11-29T04:37:40.723Z,34.67
2018-11-29T04:40:43.811Z,36.83
2018-11-29T04:43:46.897Z,33.87
2018-11-29T04:46:51.751Z,37.97
2018-11-29T04:49:54.851Z,36.27
2018-11-29T04:52:57.921Z,38.07
2018-11-29T04:56:01.025Z,34.37
2018-11-29T04:59:04.147Z,41.03
2018-11-29T05:02:07.242Z,37.73
2018-11-29T05:05:11.148Z,35.07
2018-11-29T05:08:14.254Z,33.57
2018-11-29T05:11:17.340Z,36.40
2018-11-29T05:14:20.444Z,37.10
2018-11-29T05:17:23.533Z,39.93
2018-11-29T05:20:26.636Z,35.43
2018-11-29T05:23:29.709Z,37.00
2018-11-29T05:26:32.810Z,31.23
2018-11-29T05:29:35.888Z,38.40
2018-11-29T05:32:39.027Z,34.60
2018-11-29T05:35:42.099Z,34.13
2018-11-29T05:38:45.204Z,30.70
2018-11-29T05:41:48.289Z,32.57
2018-11-29T05:44:51.383Z,35.50
2018-11-29T05:47:54.456Z,32.47
2018-11-29T05:50:57.607Z,32.77
2018-11-29T05:54:00.701Z,30.80
2018-11-29T05:57:03.820Z,32.47
2018-11-29T06:00:10.816Z,39.77
2018-11-29T06:03:13.964Z,32.57
2018-11-29T06:06:17.032Z,31.83
2018-11-29T06:09:20.257Z,32.90
2018-11-29T06:12:23.358Z,31.03
2018-11-29T06:15:26.504Z,32.17
2018-11-29T06:18:29.567Z,32.97
2018-11-29T06:21:32.672Z,32.70
2018-11-29T06:24:35.751Z,35.03
2018-11-29T06:27:38.895Z,36.70
2018-11-29T06:30:41.984Z,32.80
2018-11-29T06:33:45.050Z,33.17
2018-11-29T06:36:48.156Z,34.30
2018-11-29T06:39:51.303Z,32.37
2018-11-29T06:42:54.402Z,33.07
2018-11-29T06:45:57.485Z,33.37
2018-11-29T06:49:00.692Z,35.10
2018-11-29T06:52:03.823Z,35.77
2018-11-29T06:55:15.511Z,31.27
2018-11-29T06:58:18.584Z,33.33
2018-11-29T07:01:21.716Z,31.03
2018-11-29T07:04:24.795Z,32.30
2018-11-29T07:07:27.907Z,34.50
2018-11-29T07:10:32.011Z,30.03
2018-11-29T07:13:35.108Z,30.37
2018-11-29T07:16:38.190Z,32.27
2018-11-29T07:19:41.311Z,30.07
2018-11-29T07:22:44.792Z,31.63
2018-11-29T07:25:47.930Z,33.77
2018-11-29T07:28:51.037Z,36.33
2018-11-29T07:31:54.128Z,33.83
2018-11-29T07:34:57.242Z,34.03
2018-11-29T07:38:00.416Z,33.67
2018-11-29T07:41:03.574Z,33.60
2018-11-29T07:44:08.220Z,33.07
2018-11-29T07:47:11.317Z,34.00
2018-11-29T07:50:18.477Z,33.57
2018-11-29T07:53:21.598Z,29.97
2018-11-29T07:56:24.672Z,32.87
2018-11-29T07:59:27.788Z,30.43
2018-11-29T08:02:30.855Z,33.17
2018-11-29T08:05:33.960Z,31.27
2018-11-29T08:08:37.083Z,32.93
2018-11-29T08:11:40.711Z,30.70
2018-11-29T08:14:43.799Z,31.13
2018-11-29T08:17:46.895Z,28.50
2018-11-29T08:20:49.952Z,34.37
2018-11-29T08:23:53.071Z,27.37
2018-11-29T08:26:56.152Z,31.40
2018-11-29T08:29:59.276Z,30.87
2018-11-29T08:33:02.480Z,30.87
2018-11-29T08:36:05.605Z,28.27
2018-11-29T08:39:09.686Z,29.90
2018-11-29T08:42:12.819Z,27.90
2018-11-29T08:45:16.015Z,27.57
2018-11-29T08:48:19.124Z,29.87
2018-11-29T08:51:22.208Z,27.83
2018-11-29T08:54:31.329Z,26.63
2018-11-29T08:57:34.456Z,26.33
2018-11-29T09:00:37.583Z,27.83
2018-11-29T09:03:40.660Z,29.43
2018-11-29T09:06:43.752Z,26.20
2018-11-29T09:09:46.849Z,26.13
2018-11-29T09:12:49.944Z,23.13
2018-11-29T09:15:53.017Z,24.30
2018-11-29T09:18:56.147Z,26.50
2018-11-29T09:21:59.205Z,23.23
2018-11-29T09:25:02.319Z,25.07
2018-11-29T09:28:05.678Z,24.80
2018-11-29T09:31:08.747Z,24.07
2018-11-29T09:34:11.828Z,22.13
2018-11-29T09:37:14.932Z,23.83
2018-11-29T09:40:18.589Z,21.07
2018-11-29T09:43:21.696Z,21.87
2018-11-29T09:46:24.779Z,20.87
2018-11-29T09:49:27.884Z,23.40
2018-11-29T09:52:30.956Z,22.30
2018-11-29T09:55:34.060Z,23.67
2018-11-29T09:58:37.159Z,22.97
2018-11-29T10:01:40.264Z,23.47
2018-11-29T10:04:43.737Z,21.47
2018-11-29T10:07:46.577Z,20.67
2018-11-29T10:10:49.655Z,21.20
2018-11-29T10:13:52.809Z,19.57
2018-11-29T10:16:55.864Z,21.07
2018-11-29T10:19:58.963Z,20.70
2018-11-29T10:23:02.091Z,22.47
2018-11-29T10:26:05.199Z,26.30
2018-11-29T10:29:08.292Z,21.43
2018-11-29T10:32:19.212Z,24.23
2018-11-29T10:35:22.288Z,21.07
2018-11-29T10:38:25.544Z,19.17
2018-11-29T10:41:28.636Z,19.80
2018-11-29T10:44:31.732Z,19.53
2018-11-29T10:47:34.825Z,18.77
2018-11-29T10:50:38.128Z,21.20
2018-11-29T10:53:41.234Z,23.57
2018-11-29T10:56:44.325Z,19.80
2018-11-29T10:59:47.395Z,21.93
2018-11-29T11:02:56.529Z,20.60
2018-11-29T11:05:59.824Z,22.13
2018-11-29T11:09:02.918Z,21.67
2018-11-29T11:12:06.051Z,18.73
2018-11-29T11:15:09.172Z,18.50
2018-11-29T11:18:13.196Z,17.07
2018-11-29T11:21:16.272Z,17.50
2018-11-29T11:24:19.375Z,16.63
2018-11-29T11:27:22.463Z,16.73
2018-11-29T11:30:25.573Z,18.83
2018-11-29T11:33:28.671Z,18.73
2018-11-29T11:36:31.856Z,18.17
2018-11-29T11:39:34.988Z,18.43
2018-11-29T11:42:38.283Z,16.73
2018-11-29T11:45:41.407Z,15.83
2018-11-29T11:48:44.473Z,15.43
2018-11-29T11:51:47.586Z,14.67
2018-11-29T11:54:50.687Z,16.57
2018-11-29T11:57:53.803Z,17.03
2018-11-29T12:00:56.878Z,15.83
2018-11-29T12:04:00.061Z,15.50
2018-11-29T12:07:03.091Z,15.53
2018-11-29T12:10:08.411Z,14.50
2018-11-29T12:13:11.591Z,13.50
2018-11-29T12:16:14.665Z,14.63
2018-11-29T12:19:17.764Z,13.73
2018-11-29T12:22:20.843Z,13.57
2018-11-29T12:25:23.981Z,11.70
2018-11-29T12:28:27.049Z,12.13
2018-11-29T12:31:30.171Z,13.47
2018-11-29T12:34:33.260Z,13.77
2018-11-29T12:37:36.337Z,15.13
2018-11-29T12:40:39.436Z,14.20
2018-11-29T12:43:42.540Z,12.23
2018-11-29T12:46:45.655Z,13.57
2018-11-29T12:49:48.756Z,11.63
2018-11-29T12:52:51.862Z,11.80
2018-11-29T12:55:54.944Z,13.97
2018-11-29T12:58:58.070Z,12.63
2018-11-29T13:02:01.139Z,13.87
2018-11-29T13:05:05.475Z,13.13
2018-11-29T13:08:09.179Z,14.03
2018-11-29T13:11:12.287Z,16.23
2018-11-29T13:14:15.519Z,15.57
2018-11-29T13:17:18.488Z,13.13
2018-11-29T13:20:21.603Z,15.40
2018-11-29T13:23:24.685Z,13.87
2018-11-29T13:26:27.796Z,14.50
2018-11-29T13:29:30.911Z,14.33
2018-11-29T13:32:34.027Z,16.03
2018-11-29T13:35:37.387Z,14.07
2018-11-29T13:38:40.484Z,15.17
2018-11-29T13:41:43.585Z,15.83
2018-11-29T13:44:46.734Z,13.30
2018-11-29T13:47:49.805Z,16.07
2018-11-29T13:50:52.904Z,14.30
2018-11-29T13:53:55.976Z,15.13
2018-11-29T13:56:59.086Z,14.43
2018-11-29T14:00:02.196Z,13.10
2018-11-29T14:03:09.370Z,14.33
2018-11-29T14:06:12.252Z,13.43
2018-11-29T14:09:15.324Z,12.63
2018-11-29T14:12:18.442Z,14.23
2018-11-29T14:15:22.827Z,12.70
2018-11-29T14:18:25.939Z,16.00
2018-11-29T14:21:29.045Z,13.17
2018-11-29T14:24:32.112Z,12.17
2018-11-29T14:27:35.223Z,12.90
2018-11-29T14:30:38.280Z,12.83
2018-11-29T14:33:41.380Z,11.90
2018-11-29T14:36:44.452Z,12.63
2018-11-29T14:39:47.540Z,12.77
2018-11-29T14:42:50.960Z,12.10
2018-11-29T14:45:54.047Z,11.77
2018-11-29T14:48:57.152Z,17.80
2018-11-29T14:52:00.232Z,12.70
2018-11-29T14:55:03.366Z,11.27
2018-11-29T14:58:07.648Z,12.07
2018-11-29T15:01:10.718Z,11.87
2018-11-29T15:04:13.804Z,12.40
2018-11-29T15:07:16.994Z,11.10
2018-11-29T15:10:20.051Z,10.43
2018-11-29T15:13:23.151Z,11.57
2018-11-29T15:16:26.245Z,12.37
2018-11-29T15:19:29.320Z,10.70
2018-11-29T15:22:32.412Z,9.93
2018-11-29T15:25:35.561Z,9.63
2018-11-29T15:28:38.680Z,8.73
2018-11-29T15:31:41.776Z,11.50
2018-11-29T15:34:44.913Z,10.73
2018-11-29T15:37:48.016Z,10.33
2018-11-29T15:40:51.236Z,10.90
2018-11-29T15:43:54.425Z,10.60
2018-11-29T15:46:57.527Z,11.97
2018-11-29T15:50:00.700Z,10.50
2018-11-29T15:53:03.812Z,11.30
2018-11-29T15:56:07.067Z,10.10
2018-11-29T15:59:10.012Z,9.43
2018-11-29T16:02:13.081Z,10.07
2018-11-29T16:05:16.191Z,9.97
2018-11-29T16:08:19.269Z,8.83
2018-11-29T16:11:22.359Z,11.13
2018-11-29T16:14:26.292Z,10.97
2018-11-29T16:17:29.411Z,10.40
2018-11-29T16:20:33.795Z,10.90
2018-11-29T16:23:36.896Z,9.57
2018-11-29T16:26:39.979Z,9.73
2018-11-29T16:29:43.174Z,9.17
2018-11-29T16:32:46.256Z,10.07
2018-11-29T16:35:49.360Z,10.03
2018-11-29T16:38:52.459Z,10.60
2018-11-29T16:41:55.559Z,10.03
2018-11-29T16:44:58.623Z,8.17
2018-11-29T16:48:01.736Z,11.00
2018-11-29T16:51:05.120Z,8.70
2018-11-29T16:54:08.223Z,9.73
2018-11-29T16:57:11.343Z,9.70
2018-11-29T17:00:15.771Z,11.73
2018-11-29T17:03:18.874Z,10.13
2018-11-29T17:06:21.964Z,9.47
2018-11-29T17:09:25.056Z,11.40
2018-11-29T17:12:28.176Z,9.80
2018-11-29T17:15:31.276Z,8.07
2018-11-29T17:18:34.352Z,8.53
2018-11-29T17:21:37.443Z,9.23
2018-11-29T17:24:40.519Z,8.53
2018-11-29T17:27:43.627Z,7.83
2018-11-29T17:30:46.719Z,7.47
2018-11-29T17:33:49.812Z,11.80
2018-11-29T17:36:52.907Z,8.80
2018-11-29T17:39:55.984Z,9.00
2018-11-29T17:42:59.077Z,7.93
2018-11-29T17:46:02.167Z,11.00
2018-11-29T17:49:05.454Z,7.30
2018-11-29T17:52:08.564Z,10.90
2018-11-29T17:55:11.679Z,9.83
2018-11-29T17:58:15.444Z,11.10
2018-11-29T18:01:18.600Z,11.10
2018-11-29T18:04:21.684Z,11.80
2018-11-29T18:07:24.825Z,9.67
2018-11-29T18:10:29.790Z,11.83
2018-11-29T18:13:34.701Z,8.80
2018-11-29T18:16:37.780Z,11.03
2018-11-29T18:19:42.928Z,10.47
2018-11-29T18:22:46.025Z,10.27
2018-11-29T18:25:49.071Z,8.70
2018-11-29T18:28:52.173Z,11.60
2018-11-29T18:31:55.277Z,10.23
2018-11-29T18:34:58.352Z,8.67
2018-11-29T18:38:01.431Z,10.63
2018-11-29T18:41:04.682Z,9.97
2018-11-29T18:44:07.815Z,10.17
2018-11-29T18:47:10.896Z,8.43
2018-11-29T18:50:15.318Z,9.67
2018-11-29T18:53:18.419Z,10.27
2018-11-29T18:56:21.513Z,7.87
2018-11-29T18:59:24.664Z,8.37
2018-11-29T19:02:27.748Z,8.37
2018-11-29T19:05:30.852Z,8.60
2018-11-29T19:08:33.994Z,8.07
2018-11-29T19:11:37.076Z,6.80
2018-11-29T19:14:40.156Z,8.53
2018-11-29T19:17:43.262Z,6.87
2018-11-29T19:20:46.368Z,8.40
2018-11-29T19:23:49.447Z,8.67
2018-11-29T19:26:52.543Z,7.90
2018-11-29T19:29:55.640Z,6.43
2018-11-29T19:33:06.878Z,10.00
2018-11-29T19:36:10.005Z,7.90
2018-11-29T19:39:13.099Z,8.07
2018-11-29T19:42:16.265Z,8.30
2018-11-29T19:45:19.267Z,7.93
2018-11-29T19:48:32.731Z,8.07
2018-11-29T19:51:35.812Z,8.40
2018-11-29T19:54:38.962Z,6.80
2018-11-29T19:57:42.026Z,8.07
2018-11-29T20:00:45.578Z,7.57
2018-11-29T20:03:48.608Z,9.00
2018-11-29T20:06:51.719Z,7.63
2018-11-29T20:09:54.800Z,8.63
2018-11-29T20:13:03.411Z,8.53
2018-11-29T20:16:07.589Z,7.23
2018-11-29T20:19:10.714Z,8.47
2018-11-29T20:22:13.779Z,9.33
2018-11-29T20:25:18.888Z,8.67
2018-11-29T20:28:22.005Z,8.63
2018-11-29T20:31:25.059Z,9.63
2018-11-29T20:34:28.148Z,7.53
2018-11-29T20:37:31.244Z,8.37
2018-11-29T20:40:35.956Z,7.30
2018-11-29T20:43:42.539Z,8.37
2018-11-29T20:46:45.620Z,7.67
2018-11-29T20:49:48.680Z,8.30
2018-11-29T20:52:52.839Z,7.20
2018-11-29T20:55:55.927Z,7.17
2018-11-29T20:58:59.020Z,7.60
2018-11-29T21:02:02.072Z,9.00
2018-11-29T21:05:05.409Z,6.93
2018-11-29T21:08:09.664Z,6.77
2018-11-29T21:11:12.737Z,7.00
2018-11-29T21:14:15.820Z,8.00
2018-11-29T21:17:18.899Z,7.57
2018-11-29T21:20:22.023Z,6.60
2018-11-29T21:23:25.107Z,7.17
2018-11-29T21:26:28.211Z,7.53
2018-11-29T21:29:31.279Z,7.27
2018-11-29T21:32:34.371Z,6.63
2018-11-29T21:35:37.560Z,7.03
2018-11-29T21:38:40.616Z,8.00
2018-11-29T21:41:43.715Z,6.70
2018-11-29T21:44:46.779Z,6.47
2018-11-29T21:47:49.928Z,6.10
2018-11-29T21:50:53.019Z,8.50
2018-11-29T21:53:56.123Z,6.60
2018-11-29T21:56:59.180Z,6.67
2018-11-29T22:00:02.319Z,8.37
2018-11-29T22:03:05.376Z,6.53
2018-11-29T22:06:08.474Z,6.90
2018-11-29T22:09:11.528Z,6.53
2018-11-29T22:12:14.620Z,6.23
2018-11-29T22:15:17.684Z,7.67
2018-11-29T22:18:24.895Z,8.13
2018-11-29T22:21:30.347Z,7.13
2018-11-29T22:24:33.406Z,9.50
2018-11-29T22:27:36.596Z,7.63
2018-11-29T22:30:39.779Z,7.93
2018-11-29T22:33:42.943Z,8.30
2018-11-29T22:36:46.120Z,7.77
2018-11-29T22:39:49.309Z,8.77
2018-11-29T22:42:52.428Z,7.03
2018-11-29T22:45:55.514Z,6.70
2018-11-29T22:48:58.608Z,7.43
2018-11-29T22:52:01.679Z,8.00
2018-11-29T22:55:05.341Z,6.73
2018-11-29T22:58:08.412Z,6.97
2018-11-29T23:01:17.063Z,6.13
2018-11-29T23:04:20.132Z,7.33
2018-11-29T23:07:23.232Z,7.73
2018-11-29T23:10:26.304Z,9.40
2018-11-29T23:13:29.513Z,7.63
2018-11-29T23:16:32.646Z,8.50
2018-11-29T23:19:35.746Z,7.87
2018-11-29T23:22:39.576Z,7.07
2018-11-29T23:25:42.671Z,7.47
2018-11-29T23:28:45.784Z,6.37
2018-11-29T23:31:48.861Z,7.47
2018-11-29T23:34:51.980Z,8.37
2018-11-29T23:37:55.060Z,8.27
2018-11-29T23:40:58.197Z,7.77
2018-11-29T23:44:01.255Z,8.40
2018-11-29T23:47:04.567Z,9.37
2018-11-29T23:50:09.531Z,8.40
2018-11-29T23:53:12.624Z,9.20
2018-11-29T23:56:15.684Z,8.40
2018-11-29T23:59:18.767Z,9.30
